| time (UTC) | temp C | wind direction | speed KPH | gust KPH | rain 1hr cm | rain 24hr cm | rain mn cm | humidity % | barometer mb |
| 20260906003813 | 29 | 315 | 1.6 | 3.2 | 0.00 | 0.00 | 0.00 | 72 | 1012.0 |
| 20260906003309 | 30 | 298 | 3.2 | 3.2 | 0.00 | 0.00 | 0.00 | 72 | 1011.6 |
| 20260906002804 | 30 | 295 | 3.2 | 3.2 | 0.00 | 0.00 | 0.00 | 71 | 1011.6 |
| 20260906002306 | 30 | 314 | 1.6 | 3.2 | 0.00 | 0.00 | 0.00 | 69 | 1011.6 |
| 20260906001759 | 31 | 315 | 0.0 | 1.6 | 0.00 | 0.00 | 0.00 | 66 | 1011.7 |
| 20260906001254 | 31 | 319 | 1.6 | 3.2 | 0.00 | 0.00 | 0.00 | 64 | 1011.7 |
| 20260906000749 | 31 | 316 | 1.6 | 3.2 | 0.00 | 0.00 | 0.00 | 64 | 1011.7 |
| 20260906000243 | 31 | 300 | 3.2 | 3.2 | 0.00 | 0.00 | 0.00 | 62 | 1011.7 |
| 20260905235738 | 31 | 289 | 3.2 | 3.2 | 0.00 | 0.00 | 0.00 | 63 | 1011.9 |
| 20260905235238 | 31 | 291 | 1.6 | 3.2 | 0.00 | 0.00 | 0.00 | 64 | 1011.8 |
| 20260905234734 | 32 | 299 | 1.6 | 3.2 | 0.00 | 0.00 | 0.00 | 63 | 1011.8 |
| 20260905234229 | 32 | 300 | 1.6 | 1.6 | 0.00 | 0.00 | 0.00 | 61 | 1011.9 |
| 20260905233724 | 32 | 303 | 1.6 | 3.2 | 0.00 | 0.00 | 0.00 | 61 | 1011.9 |
| 20260905233223 | 32 | 302 | 3.2 | 3.2 | 0.00 | 0.00 | 0.00 | 59 | 1011.8 |
| 20260905232718 | 32 | 298 | 3.2 | 4.8 | 0.00 | 0.00 | 0.00 | 61 | 1011.9 |
| 20260905232214 | 32 | 284 | 3.2 | 3.2 | 0.00 | 0.00 | 0.00 | 63 | 1011.8 |
| 20260905231710 | 32 | 299 | 3.2 | 3.2 | 0.00 | 0.00 | 0.00 | 63 | 1011.7 |
| 20260905231205 | 32 | 311 | 1.6 | 3.2 | 0.00 | 0.00 | 0.00 | 62 | 1011.8 |
| 20260905230701 | 33 | 341 | 1.6 | 3.2 | 0.00 | 0.00 | 0.00 | 59 | 1011.7 |
| 20260905230159 | 33 | 306 | 1.6 | 3.2 | 0.00 | 0.00 | 0.00 | 55 | 1011.6 |
| 20260905225658 | 33 | 328 | 0.0 | 3.2 | 0.00 | 0.00 | 0.00 | 57 | 1011.7 |
| 20260905225154 | 32 | 296 | 1.6 | 3.2 | 0.00 | 0.00 | 0.00 | 64 | 1011.7 |
| 20260905224654 | 33 | 348 | 6.4 | 6.4 | 0.00 | 0.00 | 0.00 | 63 | 1011.7 |
| 20260905224153 | 33 | 336 | 1.6 | 1.6 | 0.00 | 0.00 | 0.00 | 57 | 1011.6 |
| 20260905223650 | 33 | 300 | 1.6 | 3.2 | 0.00 | 0.00 | 0.00 | 59 | 1011.7 |
| 20260905223147 | 34 | 358 | 0.0 | 1.6 | 0.00 | 0.00 | 0.00 | 52 | 1011.8 |
| 20260905222642 | 34 | 339 | 1.6 | 3.2 | 0.00 | 0.00 | 0.00 | 50 | 1011.6 |
| 20260905222137 | 35 | 340 | 3.2 | 3.2 | 0.00 | 0.00 | 0.00 | 50 | 1011.5 |
| 20260905221632 | 35 | 319 | 0.0 | 1.6 | 0.00 | 0.00 | 0.00 | 47 | 1011.6 |
| 20260905221129 | 35 | 319 | 1.6 | 3.2 | 0.00 | 0.00 | 0.00 | 47 | 1011.5 |
| 20260905220624 | 36 | 333 | 1.6 | 3.2 | 0.00 | 0.00 | 0.00 | 47 | 1011.8 |
| 20260905220120 | 36 | 341 | 3.2 | 4.8 | 0.00 | 0.00 | 0.00 | 44 | 1011.7 |
| 20260905215620 | 37 | 330 | 4.8 | 6.4 | 0.00 | 0.00 | 0.00 | 40 | 1011.7 |
| 20260905215116 | 38 | 288 | 4.8 | 6.4 | 0.00 | 0.00 | 0.00 | 38 | 1011.6 |
| 20260905214612 | 38 | 294 | 4.8 | 6.4 | 0.00 | 0.00 | 0.00 | 37 | 1011.7 |
| 20260905214112 | 38 | 300 | 3.2 | 6.4 | 0.00 | 0.00 | 0.00 | 37 | 1011.9 |
| 20260905213607 | 38 | 276 | 6.4 | 8.0 | 0.00 | 0.00 | 0.00 | 37 | 1011.7 |
| 20260905213102 | 38 | 289 | 4.8 | 6.4 | 0.00 | 0.00 | 0.00 | 39 | 1011.8 |
| 20260905212602 | 39 | 310 | 4.8 | 4.8 | 0.00 | 0.00 | 0.00 | 37 | 1011.8 |
| 20260905212102 | 38 | 272 | 3.2 | 4.8 | 0.00 | 0.00 | 0.00 | 35 | 1011.8 |
| 20260905211557 | 38 | 266 | 8.0 | 8.0 | 0.00 | 0.00 | 0.00 | 36 | 1011.8 |
| 20260905211052 | 39 | 329 | 3.2 | 4.8 | 0.00 | 0.00 | 0.00 | 37 | 1011.9 |
| 20260905210548 | 39 | 315 | 4.8 | 6.4 | 0.00 | 0.00 | 0.00 | 36 | 1012.0 |
| 20260905210043 | 38 | 335 | 3.2 | 4.8 | 0.00 | 0.00 | 0.00 | 36 | 1012.0 |
| 20260905205543 | 39 | 279 | 3.2 | 6.4 | 0.00 | 0.00 | 0.00 | 37 | 1012.3 |
| 20260905205042 | 38 | 300 | 6.4 | 6.4 | 0.00 | 0.00 | 0.00 | 35 | 1012.2 |
| 20260905204537 | 39 | 256 | 3.2 | 3.2 | 0.00 | 0.00 | 0.00 | 35 | 1012.1 |
| 20260905204032 | 38 | 287 | 3.2 | 6.4 | 0.00 | 0.00 | 0.00 | 41 | 1012.2 |
| 20260905203532 | 38 | 347 | 3.2 | 6.4 | 0.00 | 0.00 | 0.00 | 39 | 1012.3 |
| 20260905203027 | 38 | 288 | 3.2 | 6.4 | 0.00 | 0.00 | 0.00 | 39 | 1012.2 |
| 20260905202522 | 37 | 340 | 1.6 | 8.0 | 0.00 | 0.00 | 0.00 | 43 | 1012.3 |
| 20260905202018 | 37 | 295 | 4.8 | 4.8 | 0.00 | 0.00 | 0.00 | 39 | 1012.2 |
| 20260905201514 | 37 | 284 | 4.8 | 9.7 | 0.00 | 0.00 | 0.00 | 40 | 1012.5 |
| 20260905201013 | 38 | 299 | 6.4 | 6.4 | 0.00 | 0.00 | 0.00 | 40 | 1012.5 |
| 20260905200509 | 39 | 311 | 1.6 | 3.2 | 0.00 | 0.00 | 0.00 | 40 | 1012.5 |
| 20260905200008 | 37 | 25 | 3.2 | 8.0 | 0.00 | 0.00 | 0.00 | 37 | 1012.7 |
| 20260905195502 | 38 | 257 | 3.2 | 9.7 | 0.00 | 0.00 | 0.00 | 37 | 1012.9 |
| 20260905194958 | 38 | 342 | 3.2 | 6.4 | 0.00 | 0.00 | 0.00 | 38 | 1012.8 |
| 20260905194457 | 38 | 46 | 3.2 | 4.8 | 0.00 | 0.00 | 0.00 | 38 | 1013.2 |
| 20260905193957 | 38 | 321 | 4.8 | 6.4 | 0.00 | 0.00 | 0.00 | 40 | 1013.1 |
| 20260905193452 | 38 | 317 | 4.8 | 9.7 | 0.00 | 0.00 | 0.00 | 39 | 1013.1 |
| 20260905192947 | 38 | 354 | 4.8 | 9.7 | 0.00 | 0.00 | 0.00 | 39 | 1013.2 |
| 20260905192442 | 39 | 288 | 3.2 | 8.0 | 0.00 | 0.00 | 0.00 | 37 | 1013.2 |
| 20260905191938 | 38 | 244 | 3.2 | 3.2 | 0.00 | 0.00 | 0.00 | 37 | 1013.3 |
| 20260905191438 | 38 | 288 | 9.7 | 9.7 | 0.00 | 0.00 | 0.00 | 40 | 1013.3 |
| 20260905190937 | 38 | 293 | 4.8 | 6.4 | 0.00 | 0.00 | 0.00 | 40 | 1013.5 |
| 20260905190435 | 38 | 350 | 3.2 | 4.8 | 0.00 | 0.00 | 0.00 | 40 | 1013.6 |
| 20260905185934 | 38 | 349 | 3.2 | 6.4 | 0.00 | 0.00 | 0.00 | 40 | 1013.6 |
| 20260905185429 | 37 | 242 | 3.2 | 9.7 | 0.00 | 0.00 | 0.00 | 40 | 1013.5 |
| 20260905184928 | 38 | 274 | 3.2 | 8.0 | 0.00 | 0.00 | 0.00 | 40 | 1013.7 |
| 20260905184423 | 38 | 287 | 4.8 | 4.8 | 0.00 | 0.00 | 0.00 | 43 | 1013.7 |
| 20260905183921 | 37 | 288 | 3.2 | 4.8 | 0.00 | 0.00 | 0.00 | 41 | 1013.7 |
| 20260905183416 | 37 | 325 | 0.0 | 4.8 | 0.00 | 0.00 | 0.00 | 45 | 1013.6 |
| 20260905182911 | 37 | 283 | 1.6 | 6.4 | 0.00 | 0.00 | 0.00 | 42 | 1013.6 |
| 20260905182410 | 37 | 3 | 3.2 | 3.2 | 0.00 | 0.00 | 0.00 | 42 | 1013.9 |
| 20260905181907 | 37 | 354 | 4.8 | 6.4 | 0.00 | 0.00 | 0.00 | 42 | 1013.8 |
| 20260905181406 | 37 | 340 | 4.8 | 11.3 | 0.00 | 0.00 | 0.00 | 41 | 1014.0 |
| 20260905180905 | 37 | 304 | 4.8 | 8.0 | 0.00 | 0.00 | 0.00 | 41 | 1013.9 |
| 20260905180400 | 37 | 175 | 0.0 | 4.8 | 0.00 | 0.00 | 0.00 | 42 | 1014.1 |
| 20260905175855 | 37 | 211 | 1.6 | 3.2 | 0.00 | 0.00 | 0.00 | 40 | 1014.2 |
| 20260905175355 | 37 | 350 | 3.2 | 4.8 | 0.00 | 0.00 | 0.00 | 39 | 1014.3 |
| 20260905174850 | 37 | 21 | 4.8 | 9.7 | 0.00 | 0.00 | 0.00 | 39 | 1014.4 |
| 20260905174346 | 36 | 303 | 4.8 | 8.0 | 0.00 | 0.00 | 0.00 | 41 | 1014.4 |
| 20260905173841 | 36 | 348 | 4.8 | 6.4 | 0.00 | 0.00 | 0.00 | 46 | 1014.3 |
| 20260905173337 | 37 | 282 | 6.4 | 8.0 | 0.00 | 0.00 | 0.00 | 42 | 1014.4 |
| 20260905172832 | 36 | 311 | 3.2 | 8.0 | 0.00 | 0.00 | 0.00 | 46 | 1014.4 |
| 20260905172330 | 37 | 211 | 4.8 | 8.0 | 0.00 | 0.00 | 0.00 | 42 | 1014.4 |
| 20260905171826 | 36 | 305 | 6.4 | 9.7 | 0.00 | 0.00 | 0.00 | 48 | 1014.6 |
| 20260905171323 | 36 | 285 | 8.0 | 8.0 | 0.00 | 0.00 | 0.00 | 45 | 1014.7 |
| 20260905170819 | 36 | 300 | 3.2 | 8.0 | 0.00 | 0.00 | 0.00 | 46 | 1014.8 |
| 20260905170314 | 37 | 299 | 3.2 | 3.2 | 0.00 | 0.00 | 0.00 | 44 | 1014.7 |
| 20260905165813 | 35 | 292 | 8.0 | 8.0 | 0.00 | 0.00 | 0.00 | 48 | 1014.8 |
| 20260905165310 | 35 | 256 | 8.0 | 9.7 | 0.00 | 0.00 | 0.00 | 46 | 1014.9 |
| 20260905164809 | 35 | 286 | 6.4 | 9.7 | 0.00 | 0.00 | 0.00 | 47 | 1014.9 |
| 20260905164309 | 35 | 273 | 4.8 | 6.4 | 0.00 | 0.00 | 0.00 | 49 | 1015.0 |
| 20260905163805 | 35 | 272 | 8.0 | 11.3 | 0.00 | 0.00 | 0.00 | 45 | 1015.0 |
| 20260905163301 | 36 | 270 | 6.4 | 9.7 | 0.00 | 0.00 | 0.00 | 45 | 1015.0 |
| 20260905162757 | 36 | 282 | 8.0 | 8.0 | 0.00 | 0.00 | 0.00 | 47 | 1015.2 |
| 20260905162256 | 35 | 312 | 3.2 | 6.4 | 0.00 | 0.00 | 0.00 | 51 | 1014.9 |
| 20260905161751 | 36 | 331 | 4.8 | 4.8 | 0.00 | 0.00 | 0.00 | 46 | 1015.1 |
| 20260905161250 | 35 | 311 | 3.2 | 6.4 | 0.00 | 0.00 | 0.00 | 50 | 1015.2 |
| 20260905160748 | 35 | 288 | 6.4 | 6.4 | 0.00 | 0.00 | 0.00 | 49 | 1015.1 |
| 20260905160243 | 36 | 359 | 1.6 | 4.8 | 0.00 | 0.00 | 0.00 | 48 | 1015.3 |
| 20260905155738 | 35 | 289 | 4.8 | 6.4 | 0.00 | 0.00 | 0.00 | 49 | 1015.3 |
| 20260905155237 | 35 | 302 | 4.8 | 8.0 | 0.00 | 0.00 | 0.00 | 52 | 1015.2 |
| 20260905154730 | 36 | 277 | 3.2 | 3.2 | 0.00 | 0.00 | 0.00 | 48 | 1015.3 |
| 20260905154227 | 35 | 338 | 0.0 | 1.6 | 0.00 | 0.00 | 0.00 | 52 | 1015.3 |
| 20260905153717 | 34 | 291 | 3.2 | 4.8 | 0.00 | 0.00 | 0.00 | 53 | 1015.2 |
| 20260905153213 | 34 | 271 | 6.4 | 8.0 | 0.00 | 0.00 | 0.00 | 53 | 1015.3 |
| 20260905152713 | 33 | 261 | 6.4 | 9.7 | 0.00 | 0.00 | 0.00 | 54 | 1015.3 |
| 20260905152207 | 34 | 289 | 4.8 | 9.7 | 0.00 | 0.00 | 0.00 | 55 | 1015.1 |
| 20260905151707 | 35 | 291 | 3.2 | 3.2 | 0.00 | 0.00 | 0.00 | 54 | 1015.3 |
| 20260905151203 | 35 | 261 | 1.6 | 3.2 | 0.00 | 0.00 | 0.00 | 52 | 1015.4 |
| 20260905150658 | 33 | 246 | 1.6 | 3.2 | 0.00 | 0.00 | 0.00 | 57 | 1015.2 |
| 20260905150156 | 33 | 253 | 3.2 | 3.2 | 0.00 | 0.00 | 0.00 | 57 | 1015.4 |
| 20260905145654 | 33 | 293 | 3.2 | 4.8 | 0.00 | 0.00 | 0.00 | 57 | 1015.3 |
| 20260905145149 | 34 | 307 | 4.8 | 4.8 | 0.00 | 0.00 | 0.00 | 58 | 1015.4 |
| 20260905144649 | 33 | 288 | 3.2 | 4.8 | 0.00 | 0.00 | 0.00 | 59 | 1015.2 |
| 20260905144149 | 33 | 10 | 3.2 | 4.8 | 0.00 | 0.00 | 0.00 | 58 | 1015.3 |
| 20260905143648 | 33 | 275 | 3.2 | 3.2 | 0.00 | 0.00 | 0.00 | 57 | 1015.4 |
| 20260905143148 | 32 | 320 | 3.2 | 4.8 | 0.00 | 0.00 | 0.00 | 63 | 1015.2 |
| 20260905142647 | 32 | 344 | 6.4 | 6.4 | 0.00 | 0.00 | 0.00 | 61 | 1015.2 |
| 20260905142147 | 32 | 337 | 4.8 | 6.4 | 0.00 | 0.00 | 0.00 | 60 | 1015.3 |
| 20260905141642 | 31 | 311 | 3.2 | 4.8 | 0.00 | 0.00 | 0.00 | 61 | 1015.4 |
| 20260905141138 | 31 | 270 | 3.2 | 3.2 | 0.00 | 0.00 | 0.00 | 64 | 1015.3 |
| 20260905140633 | 31 | 257 | 0.0 | 4.8 | 0.00 | 0.00 | 0.00 | 61 | 1015.4 |
| 20260905140133 | 31 | 298 | 3.2 | 4.8 | 0.00 | 0.00 | 0.00 | 60 | 1015.3 |
| 20260905135627 | 31 | 333 | 1.6 | 3.2 | 0.00 | 0.00 | 0.00 | 60 | 1015.3 |
| 20260905135123 | 31 | 353 | 1.6 | 3.2 | 0.00 | 0.00 | 0.00 | 63 | 1015.6 |
| 20260905134618 | 31 | 4 | 3.2 | 3.2 | 0.00 | 0.00 | 0.00 | 64 | 1015.3 |
| 20260905134116 | 31 | 338 | 1.6 | 3.2 | 0.00 | 0.00 | 0.00 | 66 | 1015.5 |
| 20260905133613 | 30 | 300 | 1.6 | 3.2 | 0.00 | 0.00 | 0.00 | 67 | 1015.4 |
| 20260905133112 | 29 | 299 | 3.2 | 3.2 | 0.00 | 0.00 | 0.00 | 69 | 1015.4 |
| 20260905132612 | 30 | 318 | 3.2 | 3.2 | 0.00 | 0.00 | 0.00 | 71 | 1015.4 |
| 20260905132107 | 29 | 326 | 1.6 | 3.2 | 0.00 | 0.00 | 0.00 | 71 | 1015.2 |
| 20260905131602 | 28 | 1 | 3.2 | 3.2 | 0.00 | 0.00 | 0.00 | 72 | 1015.4 |
| 20260905131057 | 28 | 349 | 3.2 | 3.2 | 0.00 | 0.00 | 0.00 | 73 | 1015.3 |
| 20260905130556 | 28 | 327 | 1.6 | 3.2 | 0.00 | 0.00 | 0.00 | 74 | 1015.3 |
| 20260905130051 | 28 | 316 | 0.0 | 3.2 | 0.00 | 0.00 | 0.00 | 82 | 1015.2 |
| 20260905125551 | 27 | 333 | 3.2 | 3.2 | 0.00 | 0.00 | 0.00 | 85 | 1015.2 |
| 20260905125047 | 26 | 315 | 0.0 | 1.6 | 0.00 | 0.00 | 0.00 | 88 | 1015.3 |
| 20260905124543 | 26 | 319 | 0.0 | 3.2 | 0.00 | 0.00 | 0.00 | 88 | 1015.1 |
| 20260905124039 | 25 | 293 | 0.0 | 3.2 | 0.00 | 0.00 | 0.00 | 88 | 1015.1 |
| 20260905123534 | 25 | 318 | 0.0 | 1.6 | 0.00 | 0.00 | 0.00 | 89 | 1014.9 |
| 20260905123031 | 25 | 324 | 1.6 | 3.2 | 0.00 | 0.00 | 0.00 | 89 | 1015.1 |
| 20260905122530 | 25 | 331 | 1.6 | 3.2 | 0.00 | 0.00 | 0.00 | 89 | 1015.2 |
| 20260905122025 | 25 | 352 | 1.6 | 3.2 | 0.00 | 0.00 | 0.00 | 89 | 1015.0 |
| 20260905121520 | 24 | 266 | 0.0 | 1.6 | 0.00 | 0.00 | 0.00 | 89 | 1014.9 |
| 20260905121015 | 24 | 302 | 0.0 | 3.2 | 0.00 | 0.00 | 0.00 | 89 | 1014.8 |
| 20260905120514 | 23 | 287 | 0.0 | 3.2 | 0.00 | 0.00 | 0.00 | 89 | 1014.8 |
| 20260905120011 | 23 | 288 | 1.6 | 3.2 | 0.00 | 0.00 | 0.00 | 89 | 1015.1 |
| 20260905115509 | 23 | 273 | 0.0 | 0.0 | 0.00 | 0.00 | 0.00 | 89 | 1015.0 |
| 20260905115004 | 23 | 318 | 0.0 | 3.2 | 0.00 | 0.00 | 0.00 | 89 | 1014.8 |
| 20260905114503 | 23 | 325 | 1.6 | 3.2 | 0.00 | 0.00 | 0.00 | 89 | 1014.7 |
| 20260905114002 | 23 | 300 | 3.2 | 3.2 | 0.00 | 0.00 | 0.00 | 89 | 1014.6 |
| 20260905113458 | 23 | 300 | 3.2 | 3.2 | 0.00 | 0.00 | 0.00 | 89 | 1014.8 |
| 20260905112953 | 23 | 303 | 0.0 | 1.6 | 0.00 | 0.00 | 0.00 | 89 | 1014.7 |
| 20260905112448 | 23 | 274 | 0.0 | 1.6 | 0.00 | 0.00 | 0.00 | 89 | 1014.5 |
| 20260905111943 | 23 | 300 | 0.0 | 1.6 | 0.00 | 0.00 | 0.00 | 89 | 1014.7 |
| 20260905111437 | 23 | 313 | 1.6 | 3.2 | 0.00 | 0.00 | 0.00 | 89 | 1014.6 |
| 20260905110932 | 23 | 358 | 1.6 | 3.2 | 0.00 | 0.00 | 0.00 | 89 | 1014.6 |
| 20260905110431 | 23 | 300 | 0.0 | 1.6 | 0.00 | 0.00 | 0.00 | 89 | 1014.7 |
| 20260905105931 | 23 | 296 | 1.6 | 3.2 | 0.00 | 0.00 | 0.00 | 89 | 1014.7 |
| 20260905105426 | 23 | 347 | 0.0 | 1.6 | 0.00 | 0.00 | 0.00 | 89 | 1014.5 |
| 20260905104925 | 23 | 315 | 0.0 | 1.6 | 0.00 | 0.00 | 0.00 | 89 | 1014.5 |
| 20260905104422 | 23 | 288 | 0.0 | 3.2 | 0.00 | 0.00 | 0.00 | 89 | 1014.6 |
| 20260905103921 | 23 | 252 | 1.6 | 3.2 | 0.00 | 0.00 | 0.00 | 89 | 1014.3 |
| 20260905103417 | 23 | 295 | 1.6 | 3.2 | 0.00 | 0.00 | 0.00 | 89 | 1014.4 |
| 20260905102913 | 23 | 300 | 0.0 | 3.2 | 0.00 | 0.00 | 0.00 | 89 | 1014.4 |
| 20260905102410 | 23 | 328 | 0.0 | 1.6 | 0.00 | 0.00 | 0.00 | 89 | 1014.3 |
| 20260905101909 | 23 | 300 | 0.0 | 1.6 | 0.00 | 0.00 | 0.00 | 89 | 1014.2 |
| 20260905101407 | 23 | 324 | 0.0 | 1.6 | 0.00 | 0.00 | 0.00 | 89 | 1014.3 |
| 20260905100902 | 23 | 287 | 0.0 | 1.6 | 0.00 | 0.00 | 0.00 | 89 | 1014.2 |
| 20260905100358 | 23 | 300 | 0.0 | 1.6 | 0.00 | 0.00 | 0.00 | 89 | 1014.3 |
| 20260905095857 | 23 | 236 | 0.0 | 0.0 | 0.00 | 0.00 | 0.00 | 89 | 1014.1 |
| 20260905095352 | 23 | 261 | 0.0 | 3.2 | 0.00 | 0.00 | 0.00 | 89 | 1014.1 |
| 20260905094847 | 23 | 334 | 0.0 | 1.6 | 0.00 | 0.00 | 0.00 | 89 | 1014.2 |
| 20260905094342 | 23 | 317 | 1.6 | 3.2 | 0.00 | 0.00 | 0.00 | 89 | 1014.0 |
| 20260905093841 | 24 | 306 | 1.6 | 3.2 | 0.00 | 0.00 | 0.00 | 89 | 1014.1 |
| 20260905093337 | 24 | 296 | 1.6 | 3.2 | 0.00 | 0.00 | 0.00 | 89 | 1013.9 |
| 20260905092833 | 24 | 262 | 1.6 | 3.2 | 0.00 | 0.00 | 0.00 | 89 | 1014.2 |
| 20260905092333 | 24 | 281 | 3.2 | 3.2 | 0.00 | 0.00 | 0.00 | 89 | 1014.0 |
| 20260905091828 | 24 | 292 | 3.2 | 3.2 | 0.00 | 0.00 | 0.00 | 89 | 1014.2 |
| 20260905091327 | 23 | 286 | 1.6 | 3.2 | 0.00 | 0.00 | 0.00 | 89 | 1014.1 |
| 20260905090826 | 23 | 340 | 0.0 | 3.2 | 0.00 | 0.00 | 0.00 | 89 | 1014.2 |
| 20260905090322 | 23 | 295 | 1.6 | 3.2 | 0.00 | 0.00 | 0.00 | 89 | 1014.1 |
| 20260905085822 | 23 | 286 | 3.2 | 3.2 | 0.00 | 0.00 | 0.00 | 89 | 1014.0 |
| 20260905085316 | 23 | 349 | 0.0 | 1.6 | 0.00 | 0.00 | 0.00 | 89 | 1014.2 |
| 20260905084812 | 24 | 272 | 0.0 | 1.6 | 0.00 | 0.00 | 0.00 | 89 | 1014.1 |
| 20260905084311 | 24 | 317 | 3.2 | 3.2 | 0.00 | 0.00 | 0.00 | 89 | 1014.1 |
| 20260905083806 | 24 | 317 | 1.6 | 1.6 | 0.00 | 0.00 | 0.00 | 89 | 1014.2 |
| 20260905083302 | 24 | 286 | 0.0 | 3.2 | 0.00 | 0.00 | 0.00 | 88 | 1014.2 |
| 20260905082757 | 24 | 321 | 0.0 | 0.0 | 0.00 | 0.00 | 0.00 | 88 | 1014.2 |
| 20260905082254 | 24 | 348 | 0.0 | 3.2 | 0.00 | 0.00 | 0.00 | 88 | 1014.1 |
| 20260905081754 | 24 | 273 | 0.0 | 1.6 | 0.00 | 0.00 | 0.00 | 88 | 1014.3 |
| 20260905081249 | 24 | 258 | 0.0 | 1.6 | 0.00 | 0.00 | 0.00 | 88 | 1014.2 |
| 20260905080748 | 24 | 277 | 0.0 | 3.2 | 0.00 | 0.00 | 0.00 | 88 | 1014.1 |
| 20260905080248 | 24 | 308 | 0.0 | 3.2 | 0.00 | 0.00 | 0.00 | 88 | 1014.3 |
| 20260905075747 | 24 | 356 | 0.0 | 3.2 | 0.00 | 0.00 | 0.00 | 88 | 1014.1 |
| 20260905075247 | 25 | 291 | 1.6 | 3.2 | 0.00 | 0.00 | 0.00 | 88 | 1014.3 |
| 20260905074746 | 25 | 283 | 3.2 | 3.2 | 0.00 | 0.00 | 0.00 | 88 | 1014.2 |
| 20260905074242 | 25 | 283 | 3.2 | 3.2 | 0.00 | 0.00 | 0.00 | 88 | 1014.2 |
| 20260905073737 | 25 | 254 | 1.6 | 3.2 | 0.00 | 0.00 | 0.00 | 88 | 1014.3 |
| 20260905073232 | 25 | 322 | 3.2 | 3.2 | 0.00 | 0.00 | 0.00 | 88 | 1014.3 |
| 20260905072731 | 24 | 300 | 0.0 | 3.2 | 0.00 | 0.00 | 0.00 | 88 | 1014.5 |
| 20260905072227 | 24 | 340 | 0.0 | 1.6 | 0.00 | 0.00 | 0.00 | 88 | 1014.3 |
| 20260905071724 | 25 | 335 | 0.0 | 1.6 | 0.00 | 0.00 | 0.00 | 88 | 1014.3 |
| 20260905071220 | 25 | 14 | 0.0 | 0.0 | 0.00 | 0.00 | 0.00 | 88 | 1014.6 |
| 20260905070714 | 25 | 277 | 0.0 | 0.0 | 0.00 | 0.00 | 0.00 | 88 | 1014.4 |
| 20260905070210 | 25 | 330 | 1.6 | 1.6 | 0.00 | 0.00 | 0.00 | 88 | 1014.3 |
| 20260905065709 | 25 | 348 | 1.6 | 3.2 | 0.00 | 0.00 | 0.00 | 88 | 1014.5 |
| 20260905065203 | 25 | 284 | 1.6 | 1.6 | 0.00 | 0.00 | 0.00 | 88 | 1014.5 |
| 20260905064658 | 25 | 315 | 0.0 | 1.6 | 0.00 | 0.00 | 0.00 | 88 | 1014.5 |
| 20260905064154 | 25 | 312 | 0.0 | 3.2 | 0.00 | 0.00 | 0.00 | 88 | 1014.4 |
| 20260905063652 | 25 | 319 | 0.0 | 3.2 | 0.00 | 0.00 | 0.00 | 88 | 1014.5 |
| 20260905063149 | 25 | 291 | 3.2 | 3.2 | 0.00 | 0.00 | 0.00 | 88 | 1014.6 |
| 20260905062644 | 25 | 273 | 0.0 | 1.6 | 0.00 | 0.00 | 0.00 | 88 | 1014.5 |
| 20260905062143 | 25 | 286 | 0.0 | 1.6 | 0.00 | 0.00 | 0.00 | 88 | 1014.6 |
| 20260905061639 | 25 | 300 | 0.0 | 1.6 | 0.00 | 0.00 | 0.00 | 88 | 1014.3 |
| 20260905061138 | 25 | 300 | 1.6 | 3.2 | 0.00 | 0.00 | 0.00 | 88 | 1014.8 |
| 20260905060633 | 25 | 286 | 0.0 | 0.0 | 0.00 | 0.00 | 0.00 | 88 | 1014.7 |
| 20260905060130 | 25 | 261 | 0.0 | 0.0 | 0.00 | 0.00 | 0.00 | 87 | 1014.6 |
| 20260905055628 | 25 | 273 | 0.0 | 0.0 | 0.00 | 0.00 | 0.00 | 87 | 1014.6 |
| 20260905055124 | 25 | 300 | 0.0 | 0.0 | 0.00 | 0.00 | 0.00 | 87 | 1014.7 |
| 20260905054619 | 25 | 300 | 0.0 | 0.0 | 0.00 | 0.00 | 0.00 | 87 | 1014.8 |
| 20260905054115 | 25 | 300 | 0.0 | 1.6 | 0.00 | 0.00 | 0.00 | 87 | 1014.6 |
| 20260905053614 | 25 | 315 | 0.0 | 1.6 | 0.00 | 0.00 | 0.00 | 87 | 1014.6 |
| 20260905053110 | 25 | 297 | 0.0 | 1.6 | 0.00 | 0.00 | 0.00 | 87 | 1014.9 |
| 20260905052609 | 25 | 273 | 0.0 | 1.6 | 0.00 | 0.00 | 0.00 | 87 | 1014.8 |
| 20260905052103 | 25 | 293 | 1.6 | 3.2 | 0.00 | 0.00 | 0.00 | 87 | 1014.8 |
| 20260905051559 | 25 | 297 | 1.6 | 1.6 | 0.00 | 0.00 | 0.00 | 87 | 1014.8 |
| 20260905051056 | 25 | 288 | 1.6 | 3.2 | 0.00 | 0.00 | 0.00 | 87 | 1014.7 |
| 20260905050552 | 25 | 295 | 1.6 | 1.6 | 0.00 | 0.00 | 0.00 | 87 | 1014.8 |
| 20260905050049 | 25 | 300 | 1.6 | 3.2 | 0.00 | 0.00 | 0.00 | 87 | 1014.8 |
| 20260905045548 | 25 | 291 | 1.6 | 3.2 | 0.00 | 0.00 | 0.00 | 87 | 1015.0 |
| 20260905045044 | 25 | 297 | 1.6 | 3.2 | 0.00 | 0.00 | 0.00 | 87 | 1015.0 |
| 20260905044543 | 25 | 300 | 0.0 | 1.6 | 0.00 | 0.00 | 0.00 | 87 | 1014.9 |
| 20260905044038 | 25 | 323 | 0.0 | 1.6 | 0.00 | 0.00 | 0.00 | 87 | 1014.5 |
| 20260905043537 | 25 | 254 | 0.0 | 0.0 | 0.00 | 0.00 | 0.00 | 86 | 1014.9 |
| 20260905043033 | 25 | 300 | 0.0 | 0.0 | 0.00 | 0.00 | 0.00 | 86 | 1015.0 |
| 20260905042531 | 25 | 300 | 1.6 | 1.6 | 0.00 | 0.00 | 0.00 | 86 | 1014.9 |
| 20260905042027 | 25 | 322 | 0.0 | 1.6 | 0.00 | 0.00 | 0.00 | 86 | 1014.8 |
| 20260905041522 | 25 | 289 | 0.0 | 1.6 | 0.00 | 0.00 | 0.00 | 85 | 1014.8 |
| 20260905041018 | 25 | 328 | 0.0 | 1.6 | 0.00 | 0.00 | 0.00 | 85 | 1014.9 |
| 20260905040517 | 25 | 328 | 0.0 | 0.0 | 0.00 | 0.00 | 0.00 | 85 | 1014.9 |
| 20260905040016 | 25 | 340 | 0.0 | 1.6 | 0.00 | 0.00 | 0.00 | 84 | 1014.9 |
| 20260905035511 | 26 | 328 | 0.0 | 1.6 | 0.00 | 0.00 | 0.00 | 84 | 1014.8 |
| 20260905035008 | 26 | 315 | 0.0 | 0.0 | 0.00 | 0.00 | 0.00 | 84 | 1014.7 |
| 20260905034504 | 26 | 304 | 0.0 | 3.2 | 0.00 | 0.00 | 0.00 | 84 | 1014.7 |
| 20260905034003 | 26 | 314 | 1.6 | 3.2 | 0.00 | 0.00 | 0.00 | 83 | 1014.8 |
| 20260905033503 | 26 | 293 | 3.2 | 3.2 | 0.00 | 0.00 | 0.00 | 83 | 1014.9 |
| 20260905032958 | 26 | 292 | 3.2 | 3.2 | 0.00 | 0.00 | 0.00 | 82 | 1014.7 |
| 20260905032453 | 26 | 295 | 1.6 | 3.2 | 0.00 | 0.00 | 0.00 | 82 | 1014.8 |
| 20260905031948 | 26 | 295 | 1.6 | 1.6 | 0.00 | 0.00 | 0.00 | 82 | 1014.9 |
| 20260905031444 | 26 | 283 | 1.6 | 1.6 | 0.00 | 0.00 | 0.00 | 83 | 1014.8 |
| 20260905030939 | 26 | 283 | 1.6 | 3.2 | 0.00 | 0.00 | 0.00 | 83 | 1014.9 |
| 20260905030434 | 26 | 295 | 1.6 | 1.6 | 0.00 | 0.00 | 0.00 | 83 | 1014.8 |
| 20260905025933 | 26 | 314 | 1.6 | 1.6 | 0.00 | 0.00 | 0.00 | 83 | 1015.1 |
| 20260905025428 | 26 | 308 | 1.6 | 3.2 | 0.00 | 0.00 | 0.00 | 82 | 1015.0 |
| 20260905024925 | 26 | 323 | 1.6 | 1.6 | 0.00 | 0.00 | 0.00 | 82 | 1015.0 |
| 20260905024425 | 26 | 311 | 0.0 | 1.6 | 0.00 | 0.00 | 0.00 | 81 | 1014.9 |
| 20260905023921 | 26 | 328 | 0.0 | 1.6 | 0.00 | 0.00 | 0.00 | 81 | 1014.8 |
| 20260905023416 | 26 | 286 | 1.6 | 3.2 | 0.00 | 0.00 | 0.00 | 81 | 1014.9 |
| 20260905022915 | 26 | 287 | 0.0 | 0.0 | 0.00 | 0.00 | 0.00 | 80 | 1014.8 |
| 20260905022410 | 27 | 309 | 0.0 | 1.6 | 0.00 | 0.00 | 0.00 | 80 | 1014.8 |
| 20260905021906 | 27 | 315 | 0.0 | 1.6 | 0.00 | 0.00 | 0.00 | 80 | 1014.8 |
| 20260905021400 | 27 | 298 | 1.6 | 1.6 | 0.00 | 0.00 | 0.00 | 79 | 1014.6 |
| 20260905020855 | 27 | 307 | 1.6 | 1.6 | 0.00 | 0.00 | 0.00 | 79 | 1014.8 |
| 20260905020349 | 27 | 307 | 0.0 | 1.6 | 0.00 | 0.00 | 0.00 | 79 | 1014.8 |
| 20260905015849 | 27 | 300 | 0.0 | 1.6 | 0.00 | 0.00 | 0.00 | 78 | 1014.6 |
| 20260905015348 | 27 | 296 | 1.6 | 1.6 | 0.00 | 0.00 | 0.00 | 78 | 1014.6 |
| 20260905014848 | 27 | 300 | 1.6 | 1.6 | 0.00 | 0.00 | 0.00 | 78 | 1014.8 |
| 20260905014343 | 27 | 303 | 1.6 | 1.6 | 0.00 | 0.00 | 0.00 | 78 | 1014.7 |
| 20260905013844 | 27 | 324 | 3.2 | 3.2 | 0.00 | 0.00 | 0.00 | 77 | 1014.6 |
| 20260905013340 | 27 | 296 | 1.6 | 1.6 | 0.00 | 0.00 | 0.00 | 77 | 1014.4 |
| 20260905012835 | 28 | 300 | 0.0 | 1.6 | 0.00 | 0.00 | 0.00 | 76 | 1014.3 |
| 20260905012330 | 28 | 300 | 0.0 | 1.6 | 0.00 | 0.00 | 0.00 | 75 | 1014.4 |
| 20260905011827 | 28 | 311 | 0.0 | 1.6 | 0.00 | 0.00 | 0.00 | 75 | 1014.5 |
| 20260905011322 | 28 | 324 | 1.6 | 1.6 | 0.00 | 0.00 | 0.00 | 75 | 1014.2 |
| 20260905010817 | 28 | 314 | 1.6 | 3.2 | 0.00 | 0.00 | 0.00 | 74 | 1014.2 |
| 20260905010317 | 28 | 297 | 1.6 | 3.2 | 0.00 | 0.00 | 0.00 | 75 | 1014.1 |
| 20260905005814 | 28 | 316 | 1.6 | 3.2 | 0.00 | 0.00 | 0.00 | 72 | 1014.1 |
| 20260905005309 | 29 | 322 | 1.6 | 3.2 | 0.00 | 0.00 | 0.00 | 71 | 1014.2 |
| 20260905004804 | 29 | 296 | 1.6 | 1.6 | 0.00 | 0.00 | 0.00 | 70 | 1014.1 |
| 20260905004259 | 30 | 282 | 1.6 | 1.6 | 0.00 | 0.00 | 0.00 | 69 | 1014.1 |